Butteville, Oregon
Current Conditions -  °F | °C
As of 6:53 PM on Tuesday 25 Nov 2014 (Local Time) from KUAO Reporting Station
Overcast Overcast  
Wind Chill: 58°   Ceiling: 6000
Heat Index: 58°   Visibility: 10mi
Dew Point: 54°   Wind: 9mph
Humidity: 87%   Direction: 190°S
Pressure: 30.31"   Gusts: NA
Location:  45.2365°N, 122.797°W
Report Text: KUAO 260253Z AUTO 19008KT 10SM OVC060 14/12 A3031 RMK AO2 SLP265 T01440122 58002
Loading
Personal Weather Stations






























Interactive Weather Map New forecast layout! Learn more

10-Day Weather Forecast

Advertisements
Track Severe Weather on mobile